sensor_id;sensor_type;location;lat;lon;timestamp;temperature;humidity
52879;DHT22;38747;53.140;6.498;2024-01-11T00:00:09;-5.10;99.90
52879;DHT22;38747;53.140;6.498;2024-01-11T00:02:34;-5.10;99.90
52879;DHT22;38747;53.140;6.498;2024-01-11T00:05:00;-5.10;99.90
52879;DHT22;38747;53.140;6.498;2024-01-11T00:07:26;-5.10;99.90
52879;DHT22;38747;53.140;6.498;2024-01-11T00:09:51;-5.10;99.90
52879;DHT22;38747;53.140;6.498;2024-01-11T00:12:17;-5.00;99.90
52879;DHT22;38747;53.140;6.498;2024-01-11T00:14:42;-5.00;99.90
52879;DHT22;38747;53.140;6.498;2024-01-11T00:17:08;-5.00;99.90
52879;DHT22;38747;53.140;6.498;2024-01-11T00:19:33;-5.00;99.90
52879;DHT22;38747;53.140;6.498;2024-01-11T00:21:59;-5.00;99.90
52879;DHT22;38747;53.140;6.498;2024-01-11T00:24:25;-5.00;99.90
52879;DHT22;38747;53.140;6.498;2024-01-11T00:26:50;-5.00;99.90
52879;DHT22;38747;53.140;6.498;2024-01-11T00:29:16;-5.00;99.90
52879;DHT22;38747;53.140;6.498;2024-01-11T00:31:42;-5.00;99.90
52879;DHT22;38747;53.140;6.498;2024-01-11T00:34:07;-5.00;99.90
52879;DHT22;38747;53.140;6.498;2024-01-11T00:36:34;-5.00;99.90
52879;DHT22;38747;53.140;6.498;2024-01-11T00:39:00;-5.00;99.90
52879;DHT22;38747;53.140;6.498;2024-01-11T00:41:25;-5.00;99.90
52879;DHT22;38747;53.140;6.498;2024-01-11T00:43:51;-5.00;99.90
52879;DHT22;38747;53.140;6.498;2024-01-11T00:46:17;-4.90;99.90
52879;DHT22;38747;53.140;6.498;2024-01-11T00:48:42;-4.90;99.90
52879;DHT22;38747;53.140;6.498;2024-01-11T00:51:08;-5.00;99.90
52879;DHT22;38747;53.140;6.498;2024-01-11T00:53:34;-5.00;99.90
52879;DHT22;38747;53.140;6.498;2024-01-11T00:56:00;-5.00;99.90
52879;DHT22;38747;53.140;6.498;2024-01-11T00:58:26;-5.00;99.90
52879;DHT22;38747;53.140;6.498;2024-01-11T01:00:52;-4.90;99.90
52879;DHT22;38747;53.140;6.498;2024-01-11T01:03:19;-4.90;99.90
52879;DHT22;38747;53.140;6.498;2024-01-11T01:05:45;-4.90;99.90
52879;DHT22;38747;53.140;6.498;2024-01-11T01:08:11;-4.90;99.90
52879;DHT22;38747;53.140;6.498;2024-01-11T01:10:37;-4.90;99.90
52879;DHT22;38747;53.140;6.498;2024-01-11T01:13:05;-4.90;99.90
52879;DHT22;38747;53.140;6.498;2024-01-11T01:15:31;-4.90;99.90
52879;DHT22;38747;53.140;6.498;2024-01-11T01:17:56;-5.00;99.90
52879;DHT22;38747;53.140;6.498;2024-01-11T01:20:22;-4.90;99.90
52879;DHT22;38747;53.140;6.498;2024-01-11T01:22:49;-5.00;99.90
52879;DHT22;38747;53.140;6.498;2024-01-11T01:25:14;-5.10;99.90
52879;DHT22;38747;53.140;6.498;2024-01-11T01:27:40;-5.20;99.90
52879;DHT22;38747;53.140;6.498;2024-01-11T01:30:06;-5.10;99.90
52879;DHT22;38747;53.140;6.498;2024-01-11T01:32:32;-5.20;99.90
52879;DHT22;38747;53.140;6.498;2024-01-11T01:34:58;-5.20;99.90
52879;DHT22;38747;53.140;6.498;2024-01-11T01:37:23;-5.20;99.90
52879;DHT22;38747;53.140;6.498;2024-01-11T01:39:49;-5.30;99.90
52879;DHT22;38747;53.140;6.498;2024-01-11T01:42:15;-5.30;99.90
52879;DHT22;38747;53.140;6.498;2024-01-11T01:44:40;-5.20;99.90
52879;DHT22;38747;53.140;6.498;2024-01-11T01:47:08;-5.30;99.90
52879;DHT22;38747;53.140;6.498;2024-01-11T01:49:35;-5.30;99.90
52879;DHT22;38747;53.140;6.498;2024-01-11T01:52:01;-5.40;99.90
52879;DHT22;38747;53.140;6.498;2024-01-11T01:54:28;-5.40;99.90
52879;DHT22;38747;53.140;6.498;2024-01-11T01:56:55;-5.50;99.90
52879;DHT22;38747;53.140;6.498;2024-01-11T01:59:21;-5.50;99.90
52879;DHT22;38747;53.140;6.498;2024-01-11T02:01:48;-5.60;99.90
52879;DHT22;38747;53.140;6.498;2024-01-11T02:04:14;-5.60;99.90
52879;DHT22;38747;53.140;6.498;2024-01-11T02:06:40;-5.60;99.90
52879;DHT22;38747;53.140;6.498;2024-01-11T02:09:07;-5.70;99.90
52879;DHT22;38747;53.140;6.498;2024-01-11T02:11:34;-5.70;99.90
52879;DHT22;38747;53.140;6.498;2024-01-11T02:13:59;-5.70;99.90
52879;DHT22;38747;53.140;6.498;2024-01-11T02:16:25;-5.70;99.90
52879;DHT22;38747;53.140;6.498;2024-01-11T02:18:51;-5.70;99.90
52879;DHT22;38747;53.140;6.498;2024-01-11T02:21:17;-5.70;99.90
52879;DHT22;38747;53.140;6.498;2024-01-11T02:23:44;-5.70;99.90
52879;DHT22;38747;53.140;6.498;2024-01-11T02:26:15;-5.70;99.90
52879;DHT22;38747;53.140;6.498;2024-01-11T02:28:45;-5.70;99.90
52879;DHT22;38747;53.140;6.498;2024-01-11T02:31:12;-5.70;99.90
52879;DHT22;38747;53.140;6.498;2024-01-11T02:33:38;-5.80;99.90
52879;DHT22;38747;53.140;6.498;2024-01-11T02:36:05;-5.80;99.90
52879;DHT22;38747;53.140;6.498;2024-01-11T02:38:32;-5.80;99.90
52879;DHT22;38747;53.140;6.498;2024-01-11T02:40:59;-5.80;99.90
52879;DHT22;38747;53.140;6.498;2024-01-11T02:43:25;-5.90;99.90
52879;DHT22;38747;53.140;6.498;2024-01-11T02:45:56;-5.90;99.90
52879;DHT22;38747;53.140;6.498;2024-01-11T02:48:31;-5.90;99.90
52879;DHT22;38747;53.140;6.498;2024-01-11T02:50:59;-5.90;99.90
52879;DHT22;38747;53.140;6.498;2024-01-11T02:53:25;-5.90;99.90
52879;DHT22;38747;53.140;6.498;2024-01-11T02:55:51;-5.90;99.90
52879;DHT22;38747;53.140;6.498;2024-01-11T02:58:18;-5.90;99.90
52879;DHT22;38747;53.140;6.498;2024-01-11T03:00:43;-5.90;99.90
52879;DHT22;38747;53.140;6.498;2024-01-11T03:03:09;-6.00;99.90
52879;DHT22;38747;53.140;6.498;2024-01-11T03:05:34;-6.00;99.90
52879;DHT22;38747;53.140;6.498;2024-01-11T03:08:00;-6.00;99.90
52879;DHT22;38747;53.140;6.498;2024-01-11T03:10:25;-6.10;99.90
52879;DHT22;38747;53.140;6.498;2024-01-11T03:12:51;-6.10;99.90
52879;DHT22;38747;53.140;6.498;2024-01-11T03:15:17;-6.10;99.90
52879;DHT22;38747;53.140;6.498;2024-01-11T03:17:42;-6.20;99.90
52879;DHT22;38747;53.140;6.498;2024-01-11T03:20:08;-6.10;99.90
52879;DHT22;38747;53.140;6.498;2024-01-11T03:22:34;-6.10;99.90
52879;DHT22;38747;53.140;6.498;2024-01-11T03:24:59;-6.20;99.90
52879;DHT22;38747;53.140;6.498;2024-01-11T03:27:25;-6.10;99.90
52879;DHT22;38747;53.140;6.498;2024-01-11T03:29:51;-6.10;99.90
52879;DHT22;38747;53.140;6.498;2024-01-11T03:32:16;-6.10;99.90
52879;DHT22;38747;53.140;6.498;2024-01-11T03:34:42;-6.10;99.90
52879;DHT22;38747;53.140;6.498;2024-01-11T03:37:08;-6.10;99.90
52879;DHT22;38747;53.140;6.498;2024-01-11T03:39:34;-6.20;99.90
52879;DHT22;38747;53.140;6.498;2024-01-11T03:42:00;-6.20;99.90
52879;DHT22;38747;53.140;6.498;2024-01-11T03:44:26;-6.10;99.90
52879;DHT22;38747;53.140;6.498;2024-01-11T03:46:51;-6.10;99.90
52879;DHT22;38747;53.140;6.498;2024-01-11T03:49:17;-6.10;99.90
52879;DHT22;38747;53.140;6.498;2024-01-11T03:51:43;-6.10;99.90
52879;DHT22;38747;53.140;6.498;2024-01-11T03:54:09;-6.10;99.90
52879;DHT22;38747;53.140;6.498;2024-01-11T03:56:38;-6.10;99.90
52879;DHT22;38747;53.140;6.498;2024-01-11T03:59:05;-6.00;99.90
52879;DHT22;38747;53.140;6.498;2024-01-11T04:01:31;-6.00;99.90
52879;DHT22;38747;53.140;6.498;2024-01-11T04:03:57;-6.00;99.90
52879;DHT22;38747;53.140;6.498;2024-01-11T04:06:23;-6.10;99.90
52879;DHT22;38747;53.140;6.498;2024-01-11T04:08:50;-6.10;99.90
52879;DHT22;38747;53.140;6.498;2024-01-11T04:11:16;-6.10;99.90
52879;DHT22;38747;53.140;6.498;2024-01-11T04:13:42;-6.10;99.90
52879;DHT22;38747;53.140;6.498;2024-01-11T04:16:08;-6.10;99.90
52879;DHT22;38747;53.140;6.498;2024-01-11T04:18:33;-6.00;99.90
52879;DHT22;38747;53.140;6.498;2024-01-11T04:20:59;-6.00;99.90
52879;DHT22;38747;53.140;6.498;2024-01-11T04:23:25;-6.00;99.90
52879;DHT22;38747;53.140;6.498;2024-01-11T04:25:53;-5.90;99.90
52879;DHT22;38747;53.140;6.498;2024-01-11T04:28:19;-5.90;99.90
52879;DHT22;38747;53.140;6.498;2024-01-11T04:30:47;-5.90;99.90
52879;DHT22;38747;53.140;6.498;2024-01-11T04:33:13;-5.90;99.90
52879;DHT22;38747;53.140;6.498;2024-01-11T04:35:39;-5.80;99.90
52879;DHT22;38747;53.140;6.498;2024-01-11T04:38:07;-5.80;99.90
52879;DHT22;38747;53.140;6.498;2024-01-11T04:40:33;-5.70;99.90
52879;DHT22;38747;53.140;6.498;2024-01-11T04:42:58;-5.60;99.90
52879;DHT22;38747;53.140;6.498;2024-01-11T04:45:24;-5.60;99.90
52879;DHT22;38747;53.140;6.498;2024-01-11T04:47:52;-5.50;99.90
52879;DHT22;38747;53.140;6.498;2024-01-11T04:50:18;-5.40;99.90
52879;DHT22;38747;53.140;6.498;2024-01-11T04:52:44;-5.30;99.90
52879;DHT22;38747;53.140;6.498;2024-01-11T04:55:09;-5.30;99.90
52879;DHT22;38747;53.140;6.498;2024-01-11T04:57:35;-5.20;99.90
52879;DHT22;38747;53.140;6.498;2024-01-11T05:00:00;-5.20;99.90
52879;DHT22;38747;53.140;6.498;2024-01-11T05:02:26;-5.10;99.90
52879;DHT22;38747;53.140;6.498;2024-01-11T05:04:51;-5.00;99.90
52879;DHT22;38747;53.140;6.498;2024-01-11T05:07:17;-4.90;99.90
52879;DHT22;38747;53.140;6.498;2024-01-11T05:09:43;-4.90;99.90
52879;DHT22;38747;53.140;6.498;2024-01-11T05:12:08;-4.80;99.90
52879;DHT22;38747;53.140;6.498;2024-01-11T05:14:34;-4.80;99.90
52879;DHT22;38747;53.140;6.498;2024-01-11T05:16:59;-4.70;99.90
52879;DHT22;38747;53.140;6.498;2024-01-11T05:19:26;-4.70;99.90
52879;DHT22;38747;53.140;6.498;2024-01-11T05:21:51;-4.60;99.90
52879;DHT22;38747;53.140;6.498;2024-01-11T05:24:17;-4.50;99.90
52879;DHT22;38747;53.140;6.498;2024-01-11T05:26:43;-4.50;99.90
52879;DHT22;38747;53.140;6.498;2024-01-11T05:29:08;-4.50;99.90
52879;DHT22;38747;53.140;6.498;2024-01-11T05:31:34;-4.40;99.90
52879;DHT22;38747;53.140;6.498;2024-01-11T05:34:02;-4.40;99.90
52879;DHT22;38747;53.140;6.498;2024-01-11T05:36:27;-4.40;99.90
52879;DHT22;38747;53.140;6.498;2024-01-11T05:38:53;-4.30;99.90
52879;DHT22;38747;53.140;6.498;2024-01-11T05:41:19;-4.20;99.90
52879;DHT22;38747;53.140;6.498;2024-01-11T05:43:45;-4.20;99.90
52879;DHT22;38747;53.140;6.498;2024-01-11T05:46:10;-4.20;99.90
52879;DHT22;38747;53.140;6.498;2024-01-11T05:48:36;-4.10;99.90
52879;DHT22;38747;53.140;6.498;2024-01-11T05:51:02;-4.10;99.90
52879;DHT22;38747;53.140;6.498;2024-01-11T05:53:27;-4.00;99.90
52879;DHT22;38747;53.140;6.498;2024-01-11T05:55:53;-4.00;99.90
52879;DHT22;38747;53.140;6.498;2024-01-11T05:58:19;-4.00;99.90
52879;DHT22;38747;53.140;6.498;2024-01-11T06:00:45;-4.00;99.90
52879;DHT22;38747;53.140;6.498;2024-01-11T06:03:14;-3.90;99.90
52879;DHT22;38747;53.140;6.498;2024-01-11T06:05:40;-3.90;99.90
52879;DHT22;38747;53.140;6.498;2024-01-11T06:08:06;-3.90;99.90
52879;DHT22;38747;53.140;6.498;2024-01-11T06:10:32;-3.90;99.90
52879;DHT22;38747;53.140;6.498;2024-01-11T06:12:57;-3.80;99.90
52879;DHT22;38747;53.140;6.498;2024-01-11T06:15:26;-3.80;99.90
52879;DHT22;38747;53.140;6.498;2024-01-11T06:17:52;-3.70;99.90
52879;DHT22;38747;53.140;6.498;2024-01-11T06:20:17;-3.70;99.90
52879;DHT22;38747;53.140;6.498;2024-01-11T06:22:43;-3.70;99.90
52879;DHT22;38747;53.140;6.498;2024-01-11T06:25:08;-3.60;99.90
52879;DHT22;38747;53.140;6.498;2024-01-11T06:27:34;-3.60;99.90
52879;DHT22;38747;53.140;6.498;2024-01-11T06:30:00;-3.60;99.90
52879;DHT22;38747;53.140;6.498;2024-01-11T06:32:25;-3.50;99.90
52879;DHT22;38747;53.140;6.498;2024-01-11T06:34:51;-3.60;99.90
52879;DHT22;38747;53.140;6.498;2024-01-11T06:37:16;-3.50;99.90
52879;DHT22;38747;53.140;6.498;2024-01-11T06:39:42;-3.50;99.90
52879;DHT22;38747;53.140;6.498;2024-01-11T06:42:08;-3.50;99.90
52879;DHT22;38747;53.140;6.498;2024-01-11T06:44:33;-3.40;99.90
52879;DHT22;38747;53.140;6.498;2024-01-11T06:46:59;-3.40;99.90
52879;DHT22;38747;53.140;6.498;2024-01-11T06:49:27;-3.40;99.90
52879;DHT22;38747;53.140;6.498;2024-01-11T06:51:52;-3.30;99.90
52879;DHT22;38747;53.140;6.498;2024-01-11T06:54:18;-3.30;99.90
52879;DHT22;38747;53.140;6.498;2024-01-11T06:56:44;-3.30;99.90
52879;DHT22;38747;53.140;6.498;2024-01-11T06:59:09;-3.20;99.90
52879;DHT22;38747;53.140;6.498;2024-01-11T07:01:35;-3.20;99.90
52879;DHT22;38747;53.140;6.498;2024-01-11T07:04:01;-3.20;99.90
52879;DHT22;38747;53.140;6.498;2024-01-11T07:06:26;-3.20;99.90
52879;DHT22;38747;53.140;6.498;2024-01-11T07:08:52;-3.10;99.90
52879;DHT22;38747;53.140;6.498;2024-01-11T07:11:18;-3.10;99.90
52879;DHT22;38747;53.140;6.498;2024-01-11T07:13:44;-3.10;99.90
52879;DHT22;38747;53.140;6.498;2024-01-11T07:16:09;-3.10;99.90
52879;DHT22;38747;53.140;6.498;2024-01-11T07:18:37;-3.00;99.90
52879;DHT22;38747;53.140;6.498;2024-01-11T07:21:03;-3.00;99.90
52879;DHT22;38747;53.140;6.498;2024-01-11T07:23:29;-3.00;99.90
52879;DHT22;38747;53.140;6.498;2024-01-11T07:25:54;-3.00;99.90
52879;DHT22;38747;53.140;6.498;2024-01-11T07:28:20;-2.90;99.90
52879;DHT22;38747;53.140;6.498;2024-01-11T07:30:53;-2.90;99.90
52879;DHT22;38747;53.140;6.498;2024-01-11T07:33:19;-2.90;99.90
52879;DHT22;38747;53.140;6.498;2024-01-11T07:35:46;-2.90;99.90
52879;DHT22;38747;53.140;6.498;2024-01-11T07:38:12;-2.90;99.90
52879;DHT22;38747;53.140;6.498;2024-01-11T07:40:37;-2.80;99.90
52879;DHT22;38747;53.140;6.498;2024-01-11T07:43:03;-2.80;99.90
52879;DHT22;38747;53.140;6.498;2024-01-11T07:45:29;-2.80;99.90
52879;DHT22;38747;53.140;6.498;2024-01-11T07:47:55;-2.80;99.90
52879;DHT22;38747;53.140;6.498;2024-01-11T07:50:21;-2.80;99.90
52879;DHT22;38747;53.140;6.498;2024-01-11T07:52:47;-2.70;99.90
52879;DHT22;38747;53.140;6.498;2024-01-11T07:55:13;-2.70;99.90
52879;DHT22;38747;53.140;6.498;2024-01-11T07:57:38;-2.70;99.90
52879;DHT22;38747;53.140;6.498;2024-01-11T08:00:05;-2.60;99.90
52879;DHT22;38747;53.140;6.498;2024-01-11T08:02:34;-2.60;99.90
52879;DHT22;38747;53.140;6.498;2024-01-11T08:05:00;-2.60;99.90
52879;DHT22;38747;53.140;6.498;2024-01-11T08:07:27;-2.60;99.90
52879;DHT22;38747;53.140;6.498;2024-01-11T08:09:52;-2.50;99.90
52879;DHT22;38747;53.140;6.498;2024-01-11T08:12:18;-2.50;99.90
52879;DHT22;38747;53.140;6.498;2024-01-11T08:14:43;-2.50;99.90
52879;DHT22;38747;53.140;6.498;2024-01-11T08:17:12;-2.50;99.90
52879;DHT22;38747;53.140;6.498;2024-01-11T08:19:39;-2.40;99.90
52879;DHT22;38747;53.140;6.498;2024-01-11T08:22:05;-2.40;99.90
52879;DHT22;38747;53.140;6.498;2024-01-11T08:24:31;-2.30;99.90
52879;DHT22;38747;53.140;6.498;2024-01-11T08:26:56;-2.30;99.90
52879;DHT22;38747;53.140;6.498;2024-01-11T08:29:23;-2.30;99.90
52879;DHT22;38747;53.140;6.498;2024-01-11T08:31:49;-2.20;99.90
52879;DHT22;38747;53.140;6.498;2024-01-11T08:34:14;-2.20;99.90
52879;DHT22;38747;53.140;6.498;2024-01-11T08:36:40;-2.10;99.90
52879;DHT22;38747;53.140;6.498;2024-01-11T08:39:06;-2.10;99.90
52879;DHT22;38747;53.140;6.498;2024-01-11T08:41:33;-2.10;99.90
52879;DHT22;38747;53.140;6.498;2024-01-11T08:43:59;-2.00;99.90
52879;DHT22;38747;53.140;6.498;2024-01-11T08:46:26;-2.00;99.90
52879;DHT22;38747;53.140;6.498;2024-01-11T08:48:55;-2.00;99.90
52879;DHT22;38747;53.140;6.498;2024-01-11T08:51:22;-1.90;99.90
52879;DHT22;38747;53.140;6.498;2024-01-11T08:53:48;-1.90;99.90
52879;DHT22;38747;53.140;6.498;2024-01-11T08:56:13;-1.80;99.90
52879;DHT22;38747;53.140;6.498;2024-01-11T08:58:41;-1.70;99.90
52879;DHT22;38747;53.140;6.498;2024-01-11T09:01:07;-1.70;99.90
52879;DHT22;38747;53.140;6.498;2024-01-11T09:03:34;-1.70;99.90
52879;DHT22;38747;53.140;6.498;2024-01-11T09:06:01;-1.60;99.90
52879;DHT22;38747;53.140;6.498;2024-01-11T09:08:27;-1.60;99.90
52879;DHT22;38747;53.140;6.498;2024-01-11T09:10:53;-1.50;99.90
52879;DHT22;38747;53.140;6.498;2024-01-11T09:13:19;-1.50;99.90
52879;DHT22;38747;53.140;6.498;2024-01-11T09:15:44;-1.40;99.90
52879;DHT22;38747;53.140;6.498;2024-01-11T09:18:10;-1.40;99.90
52879;DHT22;38747;53.140;6.498;2024-01-11T09:20:36;-1.40;99.90
52879;DHT22;38747;53.140;6.498;2024-01-11T09:23:01;-1.30;99.90
52879;DHT22;38747;53.140;6.498;2024-01-11T09:25:32;-1.20;99.90
52879;DHT22;38747;53.140;6.498;2024-01-11T09:27:58;-1.20;99.90
52879;DHT22;38747;53.140;6.498;2024-01-11T09:30:24;-1.20;99.90
52879;DHT22;38747;53.140;6.498;2024-01-11T09:32:49;-1.10;99.90
52879;DHT22;38747;53.140;6.498;2024-01-11T09:35:15;-1.10;99.90
52879;DHT22;38747;53.140;6.498;2024-01-11T09:37:42;-1.00;99.90
52879;DHT22;38747;53.140;6.498;2024-01-11T09:40:12;-1.00;99.90
52879;DHT22;38747;53.140;6.498;2024-01-11T09:42:38;-0.90;99.90
52879;DHT22;38747;53.140;6.498;2024-01-11T09:45:14;-0.90;99.90
52879;DHT22;38747;53.140;6.498;2024-01-11T09:47:41;-0.80;99.90
52879;DHT22;38747;53.140;6.498;2024-01-11T09:50:08;-0.80;99.90
52879;DHT22;38747;53.140;6.498;2024-01-11T09:52:34;-0.70;99.90
52879;DHT22;38747;53.140;6.498;2024-01-11T09:55:01;-0.70;99.90
52879;DHT22;38747;53.140;6.498;2024-01-11T09:57:31;-0.60;99.90
52879;DHT22;38747;53.140;6.498;2024-01-11T09:59:58;-0.60;99.90
52879;DHT22;38747;53.140;6.498;2024-01-11T10:02:25;-0.50;99.90
52879;DHT22;38747;53.140;6.498;2024-01-11T10:04:54;-0.50;99.90
52879;DHT22;38747;53.140;6.498;2024-01-11T10:07:22;-0.50;99.90
52879;DHT22;38747;53.140;6.498;2024-01-11T10:09:49;-0.40;99.90
52879;DHT22;38747;53.140;6.498;2024-01-11T10:12:18;-0.40;99.90
52879;DHT22;38747;53.140;6.498;2024-01-11T10:14:53;-0.30;99.90
52879;DHT22;38747;53.140;6.498;2024-01-11T10:17:19;-0.30;99.90
52879;DHT22;38747;53.140;6.498;2024-01-11T10:19:45;-0.30;99.90
52879;DHT22;38747;53.140;6.498;2024-01-11T10:22:11;-0.20;99.90
52879;DHT22;38747;53.140;6.498;2024-01-11T10:24:43;-0.30;99.90
52879;DHT22;38747;53.140;6.498;2024-01-11T10:27:09;-0.20;99.90
52879;DHT22;38747;53.140;6.498;2024-01-11T10:29:37;-0.20;99.90
52879;DHT22;38747;53.140;6.498;2024-01-11T10:32:06;-0.20;99.90
52879;DHT22;38747;53.140;6.498;2024-01-11T10:34:33;-0.10;99.90
52879;DHT22;38747;53.140;6.498;2024-01-11T10:36:59;-0.10;99.90
52879;DHT22;38747;53.140;6.498;2024-01-11T10:39:25;-0.10;99.90
52879;DHT22;38747;53.140;6.498;2024-01-11T10:42:04;-0.10;99.90
52879;DHT22;38747;53.140;6.498;2024-01-11T10:44:33;-0.10;99.90
52879;DHT22;38747;53.140;6.498;2024-01-11T10:47:00;-0.10;99.90
52879;DHT22;38747;53.140;6.498;2024-01-11T10:49:27;0.00;99.90
52879;DHT22;38747;53.140;6.498;2024-01-11T10:52:03;0.00;99.90
52879;DHT22;38747;53.140;6.498;2024-01-11T10:54:30;0.00;99.90
52879;DHT22;38747;53.140;6.498;2024-01-11T10:56:58;0.10;99.90
52879;DHT22;38747;53.140;6.498;2024-01-11T10:59:29;0.10;99.90
52879;DHT22;38747;53.140;6.498;2024-01-11T11:01:58;0.10;99.90
52879;DHT22;38747;53.140;6.498;2024-01-11T11:04:26;0.10;99.90
52879;DHT22;38747;53.140;6.498;2024-01-11T11:06:55;0.20;99.90
52879;DHT22;38747;53.140;6.498;2024-01-11T11:09:23;0.20;99.90
52879;DHT22;38747;53.140;6.498;2024-01-11T11:11:50;0.20;99.90
52879;DHT22;38747;53.140;6.498;2024-01-11T11:14:17;0.20;99.90
52879;DHT22;38747;53.140;6.498;2024-01-11T11:16:44;0.20;99.90
52879;DHT22;38747;53.140;6.498;2024-01-11T11:19:10;0.30;99.90
52879;DHT22;38747;53.140;6.498;2024-01-11T11:21:42;0.30;99.90
52879;DHT22;38747;53.140;6.498;2024-01-11T11:24:09;0.40;99.90
52879;DHT22;38747;53.140;6.498;2024-01-11T11:26:35;0.40;99.90
52879;DHT22;38747;53.140;6.498;2024-01-11T11:29:03;0.40;99.90
52879;DHT22;38747;53.140;6.498;2024-01-11T11:31:36;0.40;99.90
52879;DHT22;38747;53.140;6.498;2024-01-11T11:34:03;0.40;99.90
52879;DHT22;38747;53.140;6.498;2024-01-11T11:36:29;0.50;99.90
52879;DHT22;38747;53.140;6.498;2024-01-11T11:38:57;0.50;99.90
52879;DHT22;38747;53.140;6.498;2024-01-11T11:41:26;0.50;99.90
52879;DHT22;38747;53.140;6.498;2024-01-11T11:43:52;0.50;99.90
52879;DHT22;38747;53.140;6.498;2024-01-11T11:46:19;0.60;99.90
52879;DHT22;38747;53.140;6.498;2024-01-11T11:48:49;0.60;99.90
52879;DHT22;38747;53.140;6.498;2024-01-11T11:51:17;0.60;99.90
52879;DHT22;38747;53.140;6.498;2024-01-11T11:53:45;0.70;99.90
52879;DHT22;38747;53.140;6.498;2024-01-11T11:56:11;0.70;99.90
52879;DHT22;38747;53.140;6.498;2024-01-11T11:58:42;0.70;99.90
52879;DHT22;38747;53.140;6.498;2024-01-11T12:01:08;0.80;99.90
52879;DHT22;38747;53.140;6.498;2024-01-11T12:03:36;0.80;99.90
52879;DHT22;38747;53.140;6.498;2024-01-11T12:06:09;0.70;99.90
52879;DHT22;38747;53.140;6.498;2024-01-11T12:08:36;0.70;99.90
52879;DHT22;38747;53.140;6.498;2024-01-11T12:11:02;0.70;99.90
52879;DHT22;38747;53.140;6.498;2024-01-11T12:13:28;0.70;99.90
52879;DHT22;38747;53.140;6.498;2024-01-11T12:15:54;0.70;99.90
52879;DHT22;38747;53.140;6.498;2024-01-11T12:18:23;0.70;99.90
52879;DHT22;38747;53.140;6.498;2024-01-11T12:20:51;0.80;99.90
52879;DHT22;38747;53.140;6.498;2024-01-11T12:23:19;0.70;99.90
52879;DHT22;38747;53.140;6.498;2024-01-11T12:25:44;0.70;99.90
52879;DHT22;38747;53.140;6.498;2024-01-11T12:28:10;0.70;99.90
52879;DHT22;38747;53.140;6.498;2024-01-11T12:30:36;0.70;99.90
52879;DHT22;38747;53.140;6.498;2024-01-11T12:33:03;0.70;99.90
52879;DHT22;38747;53.140;6.498;2024-01-11T12:35:30;0.80;99.90
52879;DHT22;38747;53.140;6.498;2024-01-11T12:38:00;0.80;99.90
52879;DHT22;38747;53.140;6.498;2024-01-11T12:40:31;0.80;99.90
52879;DHT22;38747;53.140;6.498;2024-01-11T12:42:57;0.80;99.90
52879;DHT22;38747;53.140;6.498;2024-01-11T12:45:24;0.80;99.90
52879;DHT22;38747;53.140;6.498;2024-01-11T12:47:52;0.80;99.90
52879;DHT22;38747;53.140;6.498;2024-01-11T12:50:18;0.90;99.90
52879;DHT22;38747;53.140;6.498;2024-01-11T12:52:45;0.90;99.90
52879;DHT22;38747;53.140;6.498;2024-01-11T12:55:20;0.90;99.90
52879;DHT22;38747;53.140;6.498;2024-01-11T12:57:46;0.90;99.90
52879;DHT22;38747;53.140;6.498;2024-01-11T13:00:13;0.90;99.90
52879;DHT22;38747;53.140;6.498;2024-01-11T13:02:39;0.90;99.90
52879;DHT22;38747;53.140;6.498;2024-01-11T13:05:06;1.00;99.90
52879;DHT22;38747;53.140;6.498;2024-01-11T13:07:33;0.90;99.90
52879;DHT22;38747;53.140;6.498;2024-01-11T13:09:59;0.90;99.90
52879;DHT22;38747;53.140;6.498;2024-01-11T13:12:25;0.90;99.90
52879;DHT22;38747;53.140;6.498;2024-01-11T13:14:50;0.90;99.90
52879;DHT22;38747;53.140;6.498;2024-01-11T13:17:18;1.00;99.90
52879;DHT22;38747;53.140;6.498;2024-01-11T13:19:44;1.00;99.90
52879;DHT22;38747;53.140;6.498;2024-01-11T13:22:10;1.00;99.90
52879;DHT22;38747;53.140;6.498;2024-01-11T13:24:36;1.00;99.90
52879;DHT22;38747;53.140;6.498;2024-01-11T13:27:01;1.00;99.90
52879;DHT22;38747;53.140;6.498;2024-01-11T13:29:27;1.00;99.90
52879;DHT22;38747;53.140;6.498;2024-01-11T13:31:53;1.00;99.90
52879;DHT22;38747;53.140;6.498;2024-01-11T13:34:18;1.00;99.90
52879;DHT22;38747;53.140;6.498;2024-01-11T13:36:44;1.00;99.90
52879;DHT22;38747;53.140;6.498;2024-01-11T13:39:10;1.00;99.90
52879;DHT22;38747;53.140;6.498;2024-01-11T13:41:36;1.10;99.90
52879;DHT22;38747;53.140;6.498;2024-01-11T13:44:02;1.00;99.90
52879;DHT22;38747;53.140;6.498;2024-01-11T13:46:33;1.00;99.90
52879;DHT22;38747;53.140;6.498;2024-01-11T13:48:59;1.00;99.90
52879;DHT22;38747;53.140;6.498;2024-01-11T13:51:24;1.00;99.90
52879;DHT22;38747;53.140;6.498;2024-01-11T13:53:50;1.10;99.90
52879;DHT22;38747;53.140;6.498;2024-01-11T13:56:16;1.00;99.90
52879;DHT22;38747;53.140;6.498;2024-01-11T13:58:42;1.10;99.90
52879;DHT22;38747;53.140;6.498;2024-01-11T14:01:10;1.10;99.90
52879;DHT22;38747;53.140;6.498;2024-01-11T14:03:36;1.10;99.90
52879;DHT22;38747;53.140;6.498;2024-01-11T14:06:02;1.10;99.90
52879;DHT22;38747;53.140;6.498;2024-01-11T14:08:28;1.20;99.90
52879;DHT22;38747;53.140;6.498;2024-01-11T14:10:54;1.20;99.90
52879;DHT22;38747;53.140;6.498;2024-01-11T14:13:20;1.20;99.90
52879;DHT22;38747;53.140;6.498;2024-01-11T14:15:45;1.20;99.90
52879;DHT22;38747;53.140;6.498;2024-01-11T14:18:13;1.20;99.90
52879;DHT22;38747;53.140;6.498;2024-01-11T14:20:39;1.20;99.90
52879;DHT22;38747;53.140;6.498;2024-01-11T14:23:04;1.20;99.90
52879;DHT22;38747;53.140;6.498;2024-01-11T14:25:30;1.30;99.90
52879;DHT22;38747;53.140;6.498;2024-01-11T14:27:56;1.30;99.90
52879;DHT22;38747;53.140;6.498;2024-01-11T14:30:22;1.30;99.90
52879;DHT22;38747;53.140;6.498;2024-01-11T14:32:48;1.30;99.90
52879;DHT22;38747;53.140;6.498;2024-01-11T14:35:14;1.30;99.90
52879;DHT22;38747;53.140;6.498;2024-01-11T14:37:40;1.30;99.90
52879;DHT22;38747;53.140;6.498;2024-01-11T14:40:06;1.30;99.90
52879;DHT22;38747;53.140;6.498;2024-01-11T14:42:36;1.30;99.90
52879;DHT22;38747;53.140;6.498;2024-01-11T14:45:02;1.30;99.90
52879;DHT22;38747;53.140;6.498;2024-01-11T14:47:29;1.30;99.90
52879;DHT22;38747;53.140;6.498;2024-01-11T14:49:55;1.30;99.90
52879;DHT22;38747;53.140;6.498;2024-01-11T14:52:20;1.30;99.90
52879;DHT22;38747;53.140;6.498;2024-01-11T14:54:46;1.30;99.90
52879;DHT22;38747;53.140;6.498;2024-01-11T14:57:15;1.30;99.90
52879;DHT22;38747;53.140;6.498;2024-01-11T14:59:44;1.30;99.90
52879;DHT22;38747;53.140;6.498;2024-01-11T15:02:10;1.30;99.90
52879;DHT22;38747;53.140;6.498;2024-01-11T15:04:36;1.30;99.90
52879;DHT22;38747;53.140;6.498;2024-01-11T15:07:02;1.30;99.90
52879;DHT22;38747;53.140;6.498;2024-01-11T15:09:29;1.30;99.90
52879;DHT22;38747;53.140;6.498;2024-01-11T15:11:54;1.20;99.90
52879;DHT22;38747;53.140;6.498;2024-01-11T15:14:20;1.20;99.90
52879;DHT22;38747;53.140;6.498;2024-01-11T15:16:49;1.20;99.90
52879;DHT22;38747;53.140;6.498;2024-01-11T15:19:15;1.30;99.90
52879;DHT22;38747;53.140;6.498;2024-01-11T15:21:41;1.20;99.90
52879;DHT22;38747;53.140;6.498;2024-01-11T15:24:07;1.20;99.90
52879;DHT22;38747;53.140;6.498;2024-01-11T15:26:33;1.20;99.90
52879;DHT22;38747;53.140;6.498;2024-01-11T15:28:59;1.20;99.90